Hauptseite
METAR-TAF:

METAR-TAF

Flughäfen :

Militärflugplatz Leeuwarden

Leeuwarden, Niederlande

Breite: 53-13N, Länge: 005-46E, Höhe: 1 m

Beobachtung

Neuester Wetterbericht von vor 18 Minuten, um 18:59 UTC
Wind 16 kt aus Südwest, variierte zwischen Süd und West/Südwest
Temperatur 17°C
Luftfeuchtigkeit 88%
Luftdruck 1010 hPa
Sichtweite 10 km oder mehr
Aufgelockert bewölkt in der Höhe von 2400 ft
Aufgelockert bewölkt in der Höhe von 2800 ft
Geschlossene Wolkendecke in der Höhe von 4100 ft

METAR: EHLW 191859Z AUTO 22016KT 190V250 9999 SCT024 SCT028 OVC041 17/15 Q1010 WHT

Zeit: 21:17 (19:17 UTC)

Prognose

Neuester Wetterbericht von vor 3 Stunden und 7 Minuten, um 16:10 UTC
Gültige Prognose vom 19 um 17 UTC bis 20 um 05 UTC
Wind 17 kt aus Südwest, Böen bis zu 27 kt
Sichtweite 10 km oder mehr
Aufgelockert bewölkt in der Höhe von 2500 ft

TAF: EHLW 191610Z 1917/2005 23017G27KT 9999 SCT025

Wetterbeobachtungen und Prognosen von mehr als 4000 Flughäfen (METAR und TAF Bericht).

Die verfügbaren Stationen werden durch gelbe und rote Markierungen auf der Karte dargestellt.

Führen Sie die Maus auf sie, um den Namen der Station zu sehen.

Darauf klicken, um die Beobachtung von Wetterbeobachtungen und Prognosen zu sehen.

Um die Karte zu ändern : klicken Sie auf den grünen Tasten mit einem schwarzen Kreuz Zum Vergrößern, auf den grünen Button mit einem Gedankenstrich zu verkleinern, oder auf die grünen Pfeile für benachbarte Karten.


METAR-TAF: